Time;durP1;ratioP1;P1;durP2;ratioP2;P2;SDS_P1;SDS_P2;PMS_P1;PMS_P2;Temp;Humidity;BMP_temperature;BMP_pressure;BME280_temperature;BME280_humidity;BME280_pressure;Samples;Min_cycle;Max_cycle;Signal;HPM_P1;HPM_P2
2022/01/13 00:00:30;;;;;;;49.75;18.75;;;5.90;99.90;;;;;;4991083;28;20470;-84
2022/01/13 00:02:55;;;;;;;55.40;18.95;;;6.00;99.90;;;;;;4994377;28;20124;-84
2022/01/13 00:05:27;;;;;;;48.45;18.90;;;7.20;99.90;;;;;;4992555;28;20386;-84
2022/01/13 00:07:55;;;;;;;48.17;18.38;;;7.50;99.90;;;;;;4992293;28;20041;-84
2022/01/13 00:10:22;;;;;;;48.60;18.48;;;6.50;99.90;;;;;;4993286;28;20045;-84
2022/01/13 00:12:56;;;;;;;58.08;18.83;;;5.90;99.90;;;;;;4976106;28;20065;-84
2022/01/13 00:15:25;;;;;;;60.28;19.27;;;6.40;99.90;;;;;;4977657;28;20038;-84
2022/01/13 00:23:37;;;;;;;51.33;17.70;;;5.90;99.90;;;;;;5007915;28;20046;-84
2022/01/13 00:25:34;;;;;;;52.10;18.05;;;6.70;99.90;;;;;;5008741;28;20042;-84
2022/01/13 00:28:03;;;;;;;62.88;20.63;;;6.30;99.90;;;;;;4961883;28;20095;-84
2022/01/13 00:30:28;;;;;;;59.00;20.45;;;5.90;99.90;;;;;;4947957;28;20116;-84
2022/01/13 00:32:54;;;;;;;60.05;19.42;;;7.30;99.90;;;;;;4971758;28;20069;-84
2022/01/13 00:35:20;;;;;;;67.53;20.63;;;5.90;99.90;;;;;;4967103;28;20322;-84
2022/01/13 00:37:45;;;;;;;62.25;19.60;;;5.80;99.90;;;;;;4986298;28;20185;-84
2022/01/13 00:40:12;;;;;;;53.75;18.55;;;6.30;99.90;;;;;;4955606;28;20046;-84
2022/01/13 00:42:38;;;;;;;61.80;18.83;;;5.80;99.90;;;;;;4967255;28;20123;-84
2022/01/13 00:45:05;;;;;;;64.90;18.52;;;5.80;99.90;;;;;;4969195;28;20058;-85
2022/01/13 00:47:33;;;;;;;55.67;18.75;;;5.80;99.90;;;;;;4981730;28;20402;-84
2022/01/13 00:49:59;;;;;;;55.75;18.40;;;6.70;99.90;;;;;;4962084;28;20042;-85
2022/01/13 00:52:25;;;;;;;56.28;18.38;;;7.20;99.90;;;;;;4972437;28;20561;-84
2022/01/13 00:54:52;;;;;;;55.58;17.40;;;6.00;99.90;;;;;;4955286;28;20423;-84
2022/01/13 00:57:18;;;;;;;49.63;16.13;;;5.80;99.90;;;;;;4954026;28;20400;-84
2022/01/13 00:59:43;;;;;;;60.58;17.58;;;6.60;99.90;;;;;;4954211;28;20113;-84
2022/01/13 01:02:09;;;;;;;59.70;16.20;;;5.80;99.90;;;;;;4956437;28;20037;-84
2022/01/13 01:04:35;;;;;;;61.75;16.88;;;6.70;99.90;;;;;;4956375;28;20038;-84
2022/01/13 01:07:00;;;;;;;57.55;17.10;;;5.70;99.90;;;;;;4965942;28;20128;-84
2022/01/13 01:09:48;;;;;;;48.95;16.27;;;5.70;99.90;;;;;;4971062;28;20037;-84
2022/01/13 01:12:12;;;;;;;39.83;14.10;;;5.70;99.90;;;;;;4984649;28;20059;-84
2022/01/13 01:14:45;;;;;;;64.85;16.70;;;7.60;99.90;;;;;;4963312;28;20555;-84
2022/01/13 01:17:14;;;;;;;55.33;14.70;;;5.70;99.90;;;;;;4956524;28;20491;-84
2022/01/13 01:19:43;;;;;;;48.28;14.38;;;6.80;99.90;;;;;;4965179;28;20042;-85
2022/01/13 01:27:40;;;;;;;49.33;15.23;;;5.70;99.90;;;;;;4970585;28;20074;-84
2022/01/13 01:30:21;;;;;;;49.20;14.88;;;5.70;99.90;;;;;;4964299;28;20038;-84
2022/01/13 01:32:47;;;;;;;52.75;15.88;;;5.70;99.90;;;;;;4990142;28;20051;-84
2022/01/13 01:35:14;;;;;;;52.15;16.50;;;5.70;99.90;;;;;;4936295;28;20042;-84
2022/01/13 01:37:41;;;;;;;54.38;17.05;;;6.30;99.90;;;;;;4961541;28;20370;-84
2022/01/13 01:40:09;;;;;;;50.17;16.80;;;5.70;99.90;;;;;;4974198;28;20561;-83
2022/01/13 01:42:34;;;;;;;47.25;16.15;;;5.70;99.90;;;;;;4951854;28;20042;-84
2022/01/13 01:45:01;;;;;;;53.42;17.48;;;6.50;99.90;;;;;;4952963;28;20038;-84
2022/01/13 01:47:29;;;;;;;56.10;18.00;;;6.80;99.90;;;;;;4968790;28;20154;-84
2022/01/13 01:49:58;;;;;;;61.15;18.63;;;6.90;99.90;;;;;;4983541;28;20120;-84
2022/01/13 01:52:26;;;;;;;57.00;19.27;;;5.70;99.90;;;;;;4989002;28;20119;-83
2022/01/13 01:54:52;;;;;;;51.92;18.45;;;6.80;99.90;;;;;;4983564;28;20038;-83
2022/01/13 01:57:19;;;;;;;55.13;18.63;;;5.60;99.90;;;;;;4951867;28;20499;-84
2022/01/13 01:59:45;;;;;;;55.92;17.92;;;7.00;99.90;;;;;;4980132;28;20066;-84
2022/01/13 02:02:13;;;;;;;51.63;18.13;;;7.00;99.90;;;;;;4968519;28;20073;-84
2022/01/13 02:04:39;;;;;;;59.92;20.13;;;6.90;99.90;;;;;;4965366;28;20064;-83
2022/01/13 02:07:07;;;;;;;53.58;18.00;;;6.30;99.90;;;;;;4970241;28;20038;-84
2022/01/13 02:09:37;;;;;;;55.17;19.15;;;5.60;99.90;;;;;;4953560;28;20122;-84
2022/01/13 02:12:09;;;;;;;51.15;17.52;;;6.90;99.90;;;;;;4968006;28;20133;-83
2022/01/13 02:14:49;;;;;;;50.30;18.15;;;5.50;99.90;;;;;;4949816;28;20077;-84
2022/01/13 02:17:22;;;;;;;60.50;17.55;;;5.50;99.90;;;;;;4969287;28;20070;-83
2022/01/13 02:19:50;;;;;;;57.42;17.77;;;6.70;99.90;;;;;;4967057;28;20117;-84
2022/01/13 02:22:16;;;;;;;48.70;16.85;;;5.60;99.90;;;;;;4985362;28;20042;-84
2022/01/13 02:24:42;;;;;;;52.78;17.30;;;6.50;99.90;;;;;;4969929;28;20144;-84
2022/01/13 02:27:08;;;;;;;55.22;17.83;;;7.00;99.90;;;;;;4964198;28;20418;-84
2022/01/13 02:29:35;;;;;;;54.78;16.95;;;5.50;99.90;;;;;;4971134;28;20049;-84
2022/01/13 02:32:03;;;;;;;52.60;18.23;;;5.50;99.90;;;;;;4991769;28;20053;-84
2022/01/13 02:34:28;;;;;;;59.00;17.90;;;5.40;99.90;;;;;;4950375;28;20046;-83
2022/01/13 02:36:55;;;;;;;55.88;17.60;;;5.60;99.90;;;;;;4942473;28;20509;-84
2022/01/13 02:39:27;;;;;;;54.33;18.30;;;5.50;99.90;;;;;;4972365;28;20459;-84
2022/01/13 02:41:54;;;;;;;54.05;17.45;;;5.50;99.90;;;;;;4949851;28;20077;-84
2022/01/13 02:44:22;;;;;;;50.90;17.08;;;6.50;99.90;;;;;;4950645;28;20491;-84
2022/01/13 02:49:19;;;;;;;59.35;17.38;;;5.50;99.90;;;;;;4987628;28;20046;-84
2022/01/13 02:51:47;;;;;;;63.50;18.55;;;5.50;99.90;;;;;;4983567;28;20412;-84
2022/01/13 02:54:13;;;;;;;61.38;18.05;;;6.80;99.90;;;;;;4980357;28;20596;-83
2022/01/13 02:56:40;;;;;;;56.58;18.52;;;7.10;99.90;;;;;;4954432;28;20134;-85
2022/01/13 02:59:06;;;;;;;49.65;16.98;;;5.50;99.90;;;;;;4960625;28;20063;-84
2022/01/13 03:01:33;;;;;;;58.28;19.50;;;6.20;99.90;;;;;;4964949;28;20077;-84
2022/01/13 03:04:04;;;;;;;59.40;17.60;;;6.40;99.90;;;;;;4967845;28;20051;-83
2022/01/13 03:06:35;;;;;;;51.83;17.58;;;6.80;99.90;;;;;;4967800;28;20038;-84
2022/01/13 03:09:04;;;;;;;58.42;17.85;;;6.20;99.90;;;;;;4999714;28;20491;-84
2022/01/13 03:11:35;;;;;;;52.25;17.92;;;5.50;99.90;;;;;;4965242;28;20049;-84
2022/01/13 03:14:02;;;;;;;63.85;18.40;;;5.50;99.90;;;;;;4967536;28;20205;-84
2022/01/13 03:16:29;;;;;;;57.53;18.95;;;6.90;99.90;;;;;;4955066;28;20060;-84
2022/01/13 03:18:55;;;;;;;56.80;17.73;;;6.70;99.90;;;;;;4970712;28;20041;-84
2022/01/13 03:21:21;;;;;;;56.50;17.02;;;5.50;99.90;;;;;;4989916;28;20035;-83
2022/01/13 03:23:46;;;;;;;53.63;17.25;;;6.40;99.90;;;;;;4983679;28;20054;-83
2022/01/13 03:26:12;;;;;;;51.28;16.60;;;6.70;99.90;;;;;;4934960;28;20137;-84
2022/01/13 03:28:40;;;;;;;61.95;17.48;;;6.90;99.90;;;;;;4965493;28;20125;-84
2022/01/13 03:31:07;;;;;;;63.08;18.20;;;5.90;99.90;;;;;;4933903;28;20634;-84
2022/01/13 03:33:34;;;;;;;54.72;16.80;;;5.50;99.90;;;;;;4964850;28;20034;-83
2022/01/13 03:36:02;;;;;;;62.58;18.23;;;5.50;99.90;;;;;;4984813;28;20135;-83
2022/01/13 03:38:30;;;;;;;54.25;17.75;;;5.50;99.90;;;;;;4981102;28;20033;-83
2022/01/13 03:40:56;;;;;;;55.65;18.35;;;5.50;99.90;;;;;;4964667;28;20030;-84
2022/01/13 03:43:21;;;;;;;61.80;18.48;;;5.50;99.90;;;;;;4970623;28;20060;-83
2022/01/13 03:45:47;;;;;;;56.22;18.15;;;5.90;99.90;;;;;;4948572;28;20483;-83
2022/01/13 03:48:13;;;;;;;53.78;18.27;;;6.10;99.90;;;;;;4968699;28;20126;-83
2022/01/13 03:50:43;;;;;;;50.55;16.63;;;6.90;99.90;;;;;;4969791;28;20045;-84
2022/01/13 03:53:30;;;;;;;64.25;17.88;;;5.70;99.90;;;;;;4969597;28;20117;-83
2022/01/13 03:56:20;;;;;;;46.28;16.27;;;5.50;99.90;;;;;;4966287;28;20499;-84
2022/01/13 03:59:33;;;;;;;61.95;17.80;;;5.40;99.90;;;;;;4986100;28;20034;-84
2022/01/13 04:02:04;;;;;;;55.97;16.52;;;5.40;99.90;;;;;;4999526;28;20038;-83
2022/01/13 04:04:44;;;;;;;52.08;16.90;;;5.70;99.90;;;;;;4964565;28;20075;-84
2022/01/13 04:07:16;;;;;;;52.10;17.13;;;5.40;99.90;;;;;;4982547;28;20046;-83
2022/01/13 04:09:42;;;;;;;61.15;17.85;;;5.40;99.90;;;;;;4965214;28;20388;-84
2022/01/13 04:12:11;;;;;;;54.42;16.67;;;6.20;99.90;;;;;;4988535;28;20073;-84
2022/01/13 04:14:45;;;;;;;53.60;16.95;;;5.90;99.90;;;;;;4968785;28;20053;-84
2022/01/13 04:17:13;;;;;;;60.88;18.13;;;5.40;99.90;;;;;;4964430;28;20034;-84
2022/01/13 04:19:40;;;;;;;64.18;18.75;;;5.50;99.90;;;;;;4966787;28;20434;-83
2022/01/13 04:22:08;;;;;;;56.92;17.10;;;5.40;99.90;;;;;;4956571;28;20427;-84
2022/01/13 04:24:36;;;;;;;72.03;19.05;;;5.90;99.90;;;;;;4966299;28;20124;-84
2022/01/13 04:27:02;;;;;;;55.90;17.20;;;5.40;99.90;;;;;;4987880;28;20044;-83
2022/01/13 04:29:34;;;;;;;60.47;17.95;;;5.40;99.90;;;;;;4986900;28;20050;-84
2022/01/13 04:32:00;;;;;;;61.90;18.23;;;5.60;99.90;;;;;;4967008;28;20594;-83
2022/01/13 04:34:26;;;;;;;54.42;18.98;;;5.40;99.90;;;;;;4932761;28;20105;-84
2022/01/13 04:36:54;;;;;;;62.22;17.20;;;6.30;99.90;;;;;;4965059;28;20042;-84
2022/01/13 04:39:20;;;;;;;65.90;17.52;;;7.00;99.90;;;;;;4987667;28;20069;-84
2022/01/13 04:41:48;;;;;;;60.08;16.77;;;6.10;99.90;;;;;;4966288;28;20062;-83
2022/01/13 04:44:19;;;;;;;51.97;15.20;;;6.10;99.90;;;;;;4967233;28;20043;-83
2022/01/13 04:46:46;;;;;;;49.92;16.05;;;6.90;99.90;;;;;;4967905;28;20042;-84
2022/01/13 04:49:12;;;;;;;49.67;16.10;;;5.40;99.90;;;;;;4953727;28;20141;-83
2022/01/13 04:51:40;;;;;;;50.13;15.68;;;6.80;99.90;;;;;;4950182;28;20052;-84
2022/01/13 04:54:06;;;;;;;48.08;15.63;;;7.30;99.90;;;;;;4984861;28;20038;-84
2022/01/13 04:56:43;;;;;;;55.05;16.05;;;5.50;99.90;;;;;;4962212;28;20066;-84
2022/01/13 04:59:09;;;;;;;55.45;16.60;;;5.50;99.90;;;;;;4939612;28;20088;-84
2022/01/13 05:01:36;;;;;;;59.50;17.60;;;6.20;99.90;;;;;;4969958;28;20049;-83
2022/01/13 05:04:03;;;;;;;51.75;15.68;;;6.60;99.90;;;;;;4945777;28;20038;-84
2022/01/13 05:06:28;;;;;;;56.42;18.13;;;5.50;99.90;;;;;;4983641;28;20165;-84
2022/01/13 05:08:54;;;;;;;52.75;16.65;;;5.50;99.90;;;;;;4966693;28;20090;-84
2022/01/13 05:11:20;;;;;;;62.63;17.95;;;5.50;99.90;;;;;;4966133;28;20077;-84
2022/01/13 05:13:47;;;;;;;56.15;17.85;;;6.20;99.90;;;;;;4964443;28;20088;-84
2022/01/13 05:16:23;;;;;;;56.60;18.95;;;5.50;99.90;;;;;;4965450;28;20054;-84
2022/01/13 05:24:14;;;;;;;56.78;17.75;;;5.50;99.90;;;;;;4983688;28;20057;-84
2022/01/13 05:26:40;;;;;;;58.97;18.85;;;6.90;99.90;;;;;;4967923;28;20046;-83
2022/01/13 05:29:05;;;;;;;57.10;18.70;;;6.80;99.90;;;;;;4962582;28;20050;-84
2022/01/13 05:31:31;;;;;;;78.72;19.88;;;5.50;99.90;;;;;;4971970;28;20050;-84
2022/01/13 05:33:57;;;;;;;67.18;18.40;;;6.40;99.90;;;;;;4968012;28;20388;-84
2022/01/13 05:36:22;;;;;;;85.70;19.52;;;5.40;99.90;;;;;;4939162;28;20046;-84
2022/01/13 05:38:50;;;;;;;68.50;18.20;;;;;;;;;;4952148;28;20041;-84
2022/01/13 05:41:16;;;;;;;62.50;17.10;;;5.50;99.90;;;;;;4949676;28;20042;-84
2022/01/13 05:43:42;;;;;;;62.28;17.40;;;6.80;99.90;;;;;;4981321;28;20041;-84
2022/01/13 05:46:07;;;;;;;79.95;18.33;;;6.70;99.90;;;;;;4971421;28;20042;-83
2022/01/13 05:48:33;;;;;;;83.15;18.48;;;6.30;99.90;;;;;;4957392;28;20134;-83
2022/01/13 05:51:00;;;;;;;69.57;16.65;;;6.30;99.90;;;;;;4976519;28;20099;-84
2022/01/13 05:53:25;;;;;;;70.20;16.67;;;5.80;99.90;;;;;;4955231;28;20053;-83
2022/01/13 05:55:51;;;;;;;92.97;18.15;;;5.50;99.90;;;;;;4950014;28;20034;-84
2022/01/13 05:58:17;;;;;;;60.83;16.25;;;5.50;99.90;;;;;;4966009;28;20085;-83
2022/01/13 06:00:43;;;;;;;57.90;15.43;;;5.90;99.90;;;;;;4967486;28;20038;-84
2022/01/13 06:03:10;;;;;;;58.03;15.80;;;6.90;99.90;;;;;;4970770;28;20046;-84
2022/01/13 06:05:35;;;;;;;73.78;16.83;;;6.50;99.90;;;;;;4971459;28;20045;-84
2022/01/13 06:08:02;;;;;;;63.97;16.25;;;6.70;99.90;;;;;;4970077;28;20097;-84
2022/01/13 06:10:27;;;;;;;69.82;16.52;;;5.50;99.90;;;;;;4970553;28;20104;-83
2022/01/13 06:12:53;;;;;;;60.30;16.45;;;6.00;99.90;;;;;;4972363;28;20406;-83
2022/01/13 06:15:23;;;;;;;106.80;20.23;;;6.30;99.90;;;;;;4975299;28;20074;-84
2022/01/13 06:17:50;;;;;;;90.45;18.10;;;6.50;99.90;;;;;;4974439;28;20080;-83
2022/01/13 06:20:18;;;;;;;66.45;17.45;;;5.60;99.90;;;;;;4967777;28;20042;-83
2022/01/13 06:22:45;;;;;;;63.08;18.23;;;5.90;99.90;;;;;;4955019;28;20635;-84
2022/01/13 06:25:12;;;;;;;67.07;17.63;;;6.70;99.90;;;;;;4962159;28;20085;-84
2022/01/13 06:27:38;;;;;;;84.90;18.52;;;5.60;99.90;;;;;;4973592;28;20049;-83
2022/01/13 06:30:07;;;;;;;63.70;17.73;;;6.90;99.90;;;;;;4973800;28;20447;-84
2022/01/13 06:32:32;;;;;;;76.75;18.23;;;5.60;99.90;;;;;;4968882;28;20030;-83
2022/01/13 06:34:58;;;;;;;78.15;18.77;;;5.70;99.90;;;;;;4967362;28;20049;-84
2022/01/13 06:37:24;;;;;;;80.13;20.27;;;7.10;99.90;;;;;;4953422;28;20061;-83
2022/01/13 06:39:50;;;;;;;71.32;18.50;;;6.30;99.90;;;;;;4962921;28;20042;-83
2022/01/13 06:42:17;;;;;;;93.75;20.65;;;6.40;99.90;;;;;;4937618;28;20806;-83
2022/01/13 06:44:43;;;;;;;89.50;21.75;;;5.70;99.90;;;;;;4965521;28;20073;-83
2022/01/13 06:47:09;;;;;;;72.88;19.52;;;5.80;99.90;;;;;;4967541;28;20084;-84
2022/01/13 06:49:35;;;;;;;78.13;20.25;;;5.80;99.90;;;;;;4983285;28;20410;-83
2022/01/13 06:52:02;;;;;;;87.93;20.65;;;5.80;99.90;;;;;;4973943;28;20474;-84
2022/01/13 06:54:28;;;;;;;86.05;20.40;;;5.80;99.90;;;;;;4970234;28;20038;-84
2022/01/13 06:56:54;;;;;;;83.57;22.20;;;7.30;99.90;;;;;;4967610;28;20495;-85
2022/01/13 06:59:20;;;;;;;82.93;20.92;;;6.40;99.90;;;;;;4988757;28;20040;-84
2022/01/13 07:01:47;;;;;;;80.82;21.42;;;6.70;99.90;;;;;;4971877;28;21527;-83
2022/01/13 07:04:14;;;;;;;83.00;22.45;;;6.00;99.90;;;;;;4954638;28;20048;-84
2022/01/13 07:06:42;;;;;;;102.20;21.80;;;7.30;99.90;;;;;;4947342;28;20042;-84
2022/01/13 07:09:10;;;;;;;85.95;21.63;;;7.00;99.90;;;;;;4951867;28;20396;-84
2022/01/13 07:11:39;;;;;;;90.18;22.52;;;6.00;99.90;;;;;;4971811;28;20042;-84
2022/01/13 07:14:05;;;;;;;100.10;23.88;;;7.60;99.90;;;;;;4964049;28;20177;-83
2022/01/13 07:16:31;;;;;;;90.57;23.60;;;7.20;99.90;;;;;;4982070;28;20117;-84
2022/01/13 07:18:57;;;;;;;81.57;22.00;;;7.60;99.90;;;;;;4972577;28;20080;-83
2022/01/13 07:21:26;;;;;;;81.68;22.27;;;6.80;99.90;;;;;;4970901;28;20038;-84
2022/01/13 07:23:51;;;;;;;91.95;24.40;;;6.10;99.90;;;;;;4979303;28;20138;-84
2022/01/13 07:26:17;;;;;;;85.50;23.17;;;7.10;99.90;;;;;;4949040;28;20129;-85
2022/01/13 07:28:43;;;;;;;85.10;23.67;;;7.70;99.90;;;;;;4955166;28;20042;-85
2022/01/13 07:31:08;;;;;;;89.10;23.15;;;6.30;99.90;;;;;;4946569;28;20510;-84
2022/01/13 07:33:34;;;;;;;82.35;22.73;;;7.30;99.90;;;;;;4951507;28;20054;-84
2022/01/13 07:36:00;;;;;;;79.15;23.27;;;6.80;99.90;;;;;;4963734;28;20033;-84
2022/01/13 07:38:26;;;;;;;74.10;23.40;;;6.70;99.90;;;;;;4964435;28;20030;-85
2022/01/13 07:40:52;;;;;;;72.30;22.30;;;6.10;99.90;;;;;;4966045;28;20034;-85
2022/01/13 07:43:22;;;;;;;75.28;23.02;;;6.10;99.90;;;;;;4964324;28;20084;-85
2022/01/13 07:45:52;;;;;;;85.13;22.30;;;7.60;99.90;;;;;;4963104;28;20038;-84
2022/01/13 07:48:19;;;;;;;71.85;22.48;;;6.20;99.90;;;;;;4981842;28;20096;-84
2022/01/13 07:50:46;;;;;;;84.88;23.17;;;7.30;99.90;;;;;;4966200;28;20038;-85
2022/01/13 07:53:11;;;;;;;75.75;21.70;;;6.20;99.90;;;;;;4962673;28;20046;-84
2022/01/13 07:55:37;;;;;;;75.55;21.52;;;6.20;99.90;;;;;;4967474;28;20407;-84
2022/01/13 07:58:03;;;;;;;78.35;21.63;;;6.20;99.90;;;;;;4953525;28;20026;-85
2022/01/13 08:00:29;;;;;;;80.03;22.27;;;6.20;99.90;;;;;;4962920;28;20503;-85
2022/01/13 08:02:55;;;;;;;87.50;22.15;;;6.20;99.90;;;;;;4970966;28;20550;-85
2022/01/13 08:05:21;;;;;;;84.13;22.50;;;7.50;99.90;;;;;;4951507;28;20278;-84
2022/01/13 08:07:47;;;;;;;79.15;21.88;;;6.20;99.90;;;;;;4957962;28;20109;-83
2022/01/13 08:10:13;;;;;;;82.53;22.17;;;6.20;99.90;;;;;;4989771;28;20528;-84
2022/01/13 08:12:40;;;;;;;76.50;21.25;;;6.20;99.90;;;;;;4955034;28;20049;-84
2022/01/13 08:15:09;;;;;;;87.80;22.00;;;6.90;99.90;;;;;;4967857;28;20045;-84
2022/01/13 08:20:20;;;;;;;79.22;21.70;;;6.30;99.90;;;;;;4970054;28;20121;-85
2022/01/13 08:22:46;;;;;;;73.45;21.05;;;7.30;99.90;;;;;;4950096;28;20607;-83
2022/01/13 08:25:11;;;;;;;75.28;21.80;;;7.30;99.90;;;;;;4948062;28;20121;-83
2022/01/13 08:27:38;;;;;;;92.45;23.08;;;7.30;99.90;;;;;;4948577;28;20416;-84
2022/01/13 08:30:05;;;;;;;82.80;21.52;;;6.30;99.90;;;;;;4949453;28;20053;-84
2022/01/13 08:32:31;;;;;;;78.80;21.52;;;6.30;99.90;;;;;;4964517;28;20038;-84
2022/01/13 08:34:57;;;;;;;77.70;21.98;;;6.30;99.90;;;;;;4960211;28;20510;-85
2022/01/13 08:37:23;;;;;;;76.07;22.08;;;6.50;99.90;;;;;;4996252;28;20447;-84
2022/01/13 08:39:49;;;;;;;77.28;22.67;;;7.30;99.90;;;;;;4946043;28;20270;-85
2022/01/13 08:42:15;;;;;;;62.38;22.05;;;6.20;99.90;;;;;;4966180;28;20293;-85
2022/01/13 08:44:41;;;;;;;66.80;21.33;;;7.50;99.90;;;;;;4959870;28;20038;-85
2022/01/13 08:47:08;;;;;;;74.18;20.55;;;7.20;99.90;;;;;;4966303;28;20133;-85
2022/01/13 08:49:33;;;;;;;66.80;21.58;;;7.00;99.90;;;;;;4968654;28;20041;-85
2022/01/13 08:52:00;;;;;;;71.32;20.35;;;6.20;99.90;;;;;;4967220;28;20392;-85
2022/01/13 08:54:26;;;;;;;68.80;20.88;;;6.20;99.90;;;;;;4975695;28;20069;-86
2022/01/13 08:56:52;;;;;;;61.33;20.73;;;6.20;99.90;;;;;;4943112;28;20072;-86
2022/01/13 08:59:18;;;;;;;67.75;22.33;;;6.20;99.90;;;;;;4969070;28;20041;-85
2022/01/13 09:01:44;;;;;;;72.10;21.63;;;7.30;99.90;;;;;;4969803;28;20053;-85
2022/01/13 09:04:10;;;;;;;72.22;21.58;;;6.20;99.90;;;;;;4955038;28;20045;-84
2022/01/13 09:06:36;;;;;;;72.55;22.55;;;6.20;99.90;;;;;;4970003;28;20126;-86
2022/01/13 09:09:02;;;;;;;70.90;21.27;;;6.60;99.90;;;;;;4944777;28;20045;-85
2022/01/13 09:11:29;;;;;;;71.82;22.40;;;6.20;99.90;;;;;;4968087;28;20175;-85
2022/01/13 09:13:58;;;;;;;61.00;21.00;;;7.40;99.90;;;;;;4987904;28;20152;-85
2022/01/13 09:16:30;;;;;;;73.55;22.08;;;6.20;99.90;;;;;;4987002;28;20068;-86
2022/01/13 09:21:27;;;;;;;77.22;22.10;;;7.70;99.90;;;;;;4985008;28;20124;-84
2022/01/13 09:23:53;;;;;;;62.78;20.80;;;7.50;99.90;;;;;;4984077;28;20477;-85
2022/01/13 09:26:19;;;;;;;75.32;22.23;;;6.40;99.90;;;;;;4965259;28;20072;-85
2022/01/13 09:28:45;;;;;;;72.10;21.60;;;;;;;;;;4966961;28;20483;-86
2022/01/13 09:31:11;;;;;;;65.82;21.25;;;6.30;99.90;;;;;;4983436;28;20129;-86
2022/01/13 09:33:37;;;;;;;61.30;20.40;;;6.30;99.90;;;;;;4972027;28;20129;-86
2022/01/13 09:36:07;;;;;;;58.40;20.15;;;6.30;99.90;;;;;;4965170;28;20173;-85
2022/01/13 09:38:33;;;;;;;63.85;20.35;;;6.30;99.90;;;;;;4987633;28;20390;-85
2022/01/13 09:40:59;;;;;;;58.47;20.42;;;6.30;99.90;;;;;;4955511;28;20092;-86
2022/01/13 09:43:27;;;;;;;53.15;19.80;;;7.60;99.90;;;;;;4936123;28;20125;-84
2022/01/13 09:45:55;;;;;;;58.50;19.88;;;6.30;99.90;;;;;;4970755;28;20177;-86
2022/01/13 09:48:21;;;;;;;52.88;19.15;;;6.20;99.90;;;;;;4969018;28;20241;-84
2022/01/13 09:50:48;;;;;;;51.60;20.02;;;6.30;99.90;;;;;;4980053;28;20407;-85
2022/01/13 09:53:15;;;;;;;54.08;19.85;;;6.50;99.90;;;;;;4966613;28;20046;-84
2022/01/13 09:55:44;;;;;;;58.42;20.05;;;8.20;99.90;;;;;;4982171;28;20115;-84
2022/01/13 09:58:10;;;;;;;65.53;21.52;;;6.60;99.90;;;;;;4966820;28;20077;-84
2022/01/13 10:00:41;;;;;;;58.80;20.63;;;6.40;99.90;;;;;;4966989;28;20511;-85
2022/01/13 10:03:23;;;;;;;61.70;19.92;;;6.50;99.90;;;;;;4948001;28;20045;-84
2022/01/13 10:05:53;;;;;;;54.47;19.95;;;6.50;99.90;;;;;;4983851;28;20108;-85
2022/01/13 10:08:23;;;;;;;56.20;20.83;;;6.50;99.90;;;;;;4965670;28;20045;-85
2022/01/13 10:10:49;;;;;;;51.63;19.65;;;6.70;99.90;;;;;;4969818;28;20100;-85
2022/01/13 10:13:28;;;;;;;52.35;19.30;;;6.50;99.90;;;;;;4953569;28;20057;-85
2022/01/13 10:18:44;;;;;;;48.63;20.13;;;6.60;99.90;;;;;;4972641;28;20046;-85
2022/01/13 10:21:12;;;;;;;55.95;21.08;;;6.90;99.90;;;;;;4970715;28;20028;-84
2022/01/13 10:24:09;;;;;;;51.78;21.02;;;6.80;99.90;;;;;;4963366;28;20050;-85
2022/01/13 10:26:36;;;;;;;55.25;20.63;;;6.60;99.90;;;;;;4987154;28;20447;-85
2022/01/13 10:29:07;;;;;;;51.67;21.17;;;6.60;99.90;;;;;;4964714;28;20042;-85
2022/01/13 10:31:46;;;;;;;58.92;22.27;;;6.60;99.90;;;;;;4966237;28;20100;-87
2022/01/13 10:34:28;;;;;;;46.78;19.55;;;6.60;99.90;;;;;;4967764;28;20042;-87
2022/01/13 10:37:01;;;;;;;50.13;19.80;;;6.60;99.90;;;;;;4970076;28;20038;-85
2022/01/13 10:40:00;;;;;;;58.17;21.70;;;6.60;99.90;;;;;;4971644;28;20038;-86
2022/01/13 10:45:09;;;;;;;47.88;19.90;;;6.60;99.90;;;;;;4979265;28;20049;-84
2022/01/13 10:47:36;;;;;;;45.50;19.40;;;6.70;99.90;;;;;;4966831;28;20048;-84
2022/01/13 10:50:10;;;;;;;48.20;19.33;;;6.70;99.90;;;;;;4944705;28;20092;-85
2022/01/13 10:52:37;;;;;;;52.63;20.40;;;6.70;99.90;;;;;;4981838;28;20088;-85
2022/01/13 10:55:07;;;;;;;49.78;19.52;;;6.90;99.90;;;;;;4949036;28;20133;-86
2022/01/13 10:57:33;;;;;;;43.55;19.00;;;6.70;99.90;;;;;;4986006;28;20121;-86
2022/01/13 10:59:59;;;;;;;49.67;20.08;;;6.70;99.90;;;;;;4945071;28;20076;-84
2022/01/13 11:02:26;;;;;;;47.55;19.58;;;7.70;99.90;;;;;;4968029;28;20499;-84
2022/01/13 11:04:52;;;;;;;47.67;19.27;;;6.70;99.90;;;;;;4963997;28;20147;-85
2022/01/13 11:07:24;;;;;;;41.20;20.30;;;7.20;99.90;;;;;;4968469;28;20052;-84
2022/01/13 11:09:56;;;;;;;47.03;19.20;;;7.90;99.90;;;;;;4964661;28;20033;-84
2022/01/13 11:12:38;;;;;;;40.50;18.88;;;7.40;99.90;;;;;;4980532;28;20531;-84
2022/01/13 11:15:06;;;;;;;44.15;20.67;;;6.70;99.90;;;;;;4965998;28;20043;-84
2022/01/13 11:17:36;;;;;;;48.67;20.33;;;6.70;99.90;;;;;;4962649;28;20034;-84
2022/01/13 11:20:04;;;;;;;48.95;21.02;;;6.70;99.90;;;;;;4949151;28;20058;-85
2022/01/13 11:22:35;;;;;;;52.88;21.73;;;6.60;99.90;;;;;;4983759;28;20415;-84
2022/01/13 11:25:03;;;;;;;56.53;21.70;;;6.70;99.90;;;;;;4969075;28;20049;-84
2022/01/13 11:27:29;;;;;;;50.67;21.65;;;7.50;99.90;;;;;;4979286;28;20042;-84
2022/01/13 11:29:55;;;;;;;49.45;21.52;;;6.70;99.90;;;;;;4947601;28;20038;-85
2022/01/13 11:32:21;;;;;;;52.17;21.55;;;6.70;99.90;;;;;;4953467;28;20045;-84
2022/01/13 11:34:48;;;;;;;53.05;21.13;;;6.70;99.90;;;;;;4988017;28;20042;-85
2022/01/13 11:37:15;;;;;;;48.10;20.80;;;;;;;;;;4959093;28;20515;-85
2022/01/13 11:39:45;;;;;;;49.60;22.73;;;6.70;99.90;;;;;;4985553;28;20033;-84
2022/01/13 11:42:16;;;;;;;53.60;22.13;;;8.20;99.90;;;;;;4968731;28;20121;-84
2022/01/13 11:44:42;;;;;;;48.67;21.25;;;8.10;99.90;;;;;;4968593;28;20042;-85
2022/01/13 11:47:22;;;;;;;49.83;21.23;;;7.10;99.90;;;;;;4969143;28;20038;-85
2022/01/13 11:49:58;;;;;;;49.60;21.00;;;7.60;99.90;;;;;;4977329;28;20208;-86
2022/01/13 11:52:42;;;;;;;50.75;22.13;;;8.50;99.90;;;;;;4968755;28;20048;-85
2022/01/13 11:55:31;;;;;;;44.20;19.90;;;6.80;99.90;;;;;;4972407;28;20037;-85
2022/01/13 11:58:18;;;;;;;44.60;19.33;;;6.80;99.90;;;;;;4968670;28;20395;-85
2022/01/13 12:00:46;;;;;;;49.38;19.67;;;6.80;99.90;;;;;;4986529;28;20034;-85
2022/01/13 12:03:25;;;;;;;41.22;19.58;;;6.80;99.90;;;;;;4991790;28;20041;-85
2022/01/13 12:05:51;;;;;;;40.53;19.42;;;6.80;99.90;;;;;;4972598;28;20277;-85
2022/01/13 12:08:36;;;;;;;44.90;20.48;;;6.80;99.90;;;;;;4972114;28;20049;-87
2022/01/13 12:11:02;;;;;;;42.92;19.73;;;6.80;99.90;;;;;;4972656;28;20037;-86
2022/01/13 12:13:27;;;;;;;43.47;19.88;;;6.80;99.90;;;;;;4973476;28;20407;-86
2022/01/13 12:15:54;;;;;;;38.67;18.50;;;6.80;99.90;;;;;;4968375;28;20034;-86
2022/01/13 12:18:42;;;;;;;41.95;19.52;;;6.80;99.90;;;;;;4965750;28;20039;-86
2022/01/13 12:21:28;;;;;;;46.13;20.15;;;6.80;99.90;;;;;;4967157;28;20038;-85
2022/01/13 12:23:56;;;;;;;44.53;19.70;;;6.80;99.90;;;;;;4967079;28;20057;-86
2022/01/13 12:26:31;;;;;;;42.05;19.63;;;7.30;99.90;;;;;;4975873;28;20050;-85
2022/01/13 12:29:18;;;;;;;42.47;19.35;;;6.80;99.90;;;;;;4990835;28;20044;-86
2022/01/13 12:32:02;;;;;;;42.78;20.35;;;6.80;99.90;;;;;;4990166;28;20046;-86
2022/01/13 12:34:28;;;;;;;40.42;20.27;;;6.90;99.90;;;;;;4966379;28;20389;-87
2022/01/13 12:36:55;;;;;;;44.80;20.20;;;6.90;99.90;;;;;;4974293;28;20096;-87
2022/01/13 12:39:21;;;;;;;43.95;21.45;;;6.90;99.90;;;;;;4968005;28;20046;-86
2022/01/13 12:42:03;;;;;;;43.08;20.75;;;6.90;99.90;;;;;;4955772;28;20479;-86
2022/01/13 12:47:15;;;;;;;37.85;20.05;;;7.20;99.90;;;;;;4986907;28;20132;-86
2022/01/13 12:49:41;;;;;;;39.05;19.88;;;7.00;99.90;;;;;;4970212;28;20048;-85
2022/01/13 12:52:08;;;;;;;39.55;20.40;;;7.00;99.90;;;;;;4949802;28;21085;-85
2022/01/13 12:54:34;;;;;;;40.50;19.65;;;7.00;99.90;;;;;;4970194;28;20034;-87
2022/01/13 12:57:05;;;;;;;38.35;20.42;;;7.00;99.90;;;;;;4971751;28;20045;-86
2022/01/13 12:59:32;;;;;;;34.60;18.38;;;7.10;99.90;;;;;;4989427;28;20336;-86
2022/01/13 13:01:59;;;;;;;38.22;20.27;;;7.20;99.90;;;;;;4951746;28;20465;-87
2022/01/13 13:04:26;;;;;;;35.03;18.50;;;7.20;99.90;;;;;;4970894;28;20046;-84
2022/01/13 13:06:52;;;;;;;34.00;17.77;;;7.20;99.90;;;;;;4934039;28;20096;-85
2022/01/13 13:09:21;;;;;;;36.42;19.48;;;7.30;99.90;;;;;;4950721;28;20041;-85
2022/01/13 13:11:55;;;;;;;36.58;19.02;;;7.30;99.90;;;;;;4984699;28;20183;-84
2022/01/13 13:15:38;;;;;;;32.08;19.00;;;7.30;99.90;;;;;;4983146;28;20042;-85
2022/01/13 13:17:31;;;;;;;39.88;19.23;;;7.40;99.90;;;;;;4985807;28;20530;-85